Cedaredge, CO

2:07 AM MDT on August 28, 2014 (GMT -0600)
Garfield County Regional | Change Station
CLOSE
Current Station
Airport
Location: Rifle,
Elevation: 5541 ft
Nearby Weather Stations
Active Advisory: Special Statement Active Notice: Public Information Statement

Elev 5541 ft 39.52 °N, 107.73 °W | Updated 14 minutes ago

Light Rain
Light Rain
55 °F
Feels Like 55 °F
N
0
Wind Variable Wind from North

Today
High -- | Low -- °F
--% Chance of Precip.
Yesterday
High -- | Low -- °F
Precip. -- in
6:36 AM 7:48 PM
Waxing Crescent, 7% visible
Pressure 30.13 in
Visibility 10.0 miles
Clouds Scattered Clouds 4500 ft
Overcast 5500 ft
Dew Point 52 °F
Humidity 89%
Rainfall 0.01 in
Snow Depth Not available.
UV 0 out of 12
Pollen 6.00 out of 12
Air Quality Not available.
Flu Activity Not available.
METAR KRIL 280753Z AUTO 00000KT 10SM -RA SCT045 OVC055 13/11 A3026 RMK AO2 RAB32 SLP201 P0001 T01280111

More Conditions Fewer Conditions

Pressure 30.13 in
Visibility 10.0 miles
Clouds Scattered Clouds 4500 ft
Overcast 5500 ft
Dew Point 52 °F
Humidity 89%
Rainfall 0.01 in
Snow Depth Not available.
UV 0 out of 12
Pollen 6.00 out of 12
Air Quality Not available.
Flu Activity Not available.
METAR KRIL 280753Z AUTO 00000KT 10SM -RA SCT045 OVC055 13/11 A3026 RMK AO2 RAB32 SLP201 P0001 T01280111

More Conditions Fewer Conditions

10-Day Weather Forecast

Almanac

Astronomy

Aug. 28, 2014 Rise Set
Actual Time 6:36 AM MDT 7:48 PM MDT
Civil Twilight 6:09 AM MDT 8:15 PM MDT
Nautical Twilight 5:36 AM MDT 8:48 PM MDT
Astronomical Twilight 5:02 AM MDT 9:22 PM MDT
Moon 9:30 AM MDT 9:15 PM MDT
Length of Visible Light 14h 06m
Length of Day
13h 11m
Tomorrow will be 2m 24s shorter.
Waxing Crescent, 7% of the Moon is Illuminated
Today
Waxing Crescent
Sep 2
First Quarter
Sep 8
Full
Sep 15
Last Quarter
Sep 24
New

Today's Extremes

State Highs State Lows

Community

WunderPhotos

Upload Photos

1,747,916 photos uploaded!

Nearby

Snow Depth

Station Depth Elevation
Park Reservoir 0 in 9960 ft
Mesa Lakes 0 in 10000 ft
Overland Reservoir 0 in 9880 ft
McClure Pass 0 in 9500 ft
North Lost Trail 1 in 9200 ft

Earthquake Activity

City Distance Mag. Time & Date
No recent earthquake activity has been reported nearby.
Minimum magnitude displayed is 2.5.

Coastal Water Temperatures

Place Temperature
No Stations Reporting

Nearby Weather Stations